sensor_id;sensor_type;location;lat;lon;timestamp;pressure;altitude;pressure_sealevel;temperature;humidity
55755;BME280;41674;52.290;-1.474;2023-11-19T00:01:28;99908.80;;;9.38;100.00
55755;BME280;41674;52.290;-1.474;2023-11-19T00:03:57;99906.46;;;9.61;100.00
55755;BME280;41674;52.290;-1.474;2023-11-19T00:06:28;99900.48;;;9.17;100.00
55755;BME280;41674;52.290;-1.474;2023-11-19T00:08:57;99897.27;;;10.16;100.00
55755;BME280;41674;52.290;-1.474;2023-11-19T00:11:26;99901.06;;;9.89;100.00
55755;BME280;41674;52.290;-1.474;2023-11-19T00:13:56;99901.69;;;9.49;100.00
55755;BME280;41674;52.290;-1.474;2023-11-19T00:16:25;99900.26;;;9.61;100.00
55755;BME280;41674;52.290;-1.474;2023-11-19T00:18:54;99890.54;;;10.01;100.00
55755;BME280;41674;52.290;-1.474;2023-11-19T00:21:24;99887.09;;;9.90;100.00
55755;BME280;41674;52.290;-1.474;2023-11-19T00:23:53;99888.34;;;9.85;100.00
55755;BME280;41674;52.290;-1.474;2023-11-19T00:26:22;99897.89;;;9.23;100.00
55755;BME280;41674;52.290;-1.474;2023-11-19T00:28:53;99898.88;;;9.43;100.00
55755;BME280;41674;52.290;-1.474;2023-11-19T00:31:22;99896.10;;;9.54;100.00
55755;BME280;41674;52.290;-1.474;2023-11-19T00:33:51;99891.25;;;9.13;100.00
55755;BME280;41674;52.290;-1.474;2023-11-19T00:36:21;99890.78;;;9.13;100.00
55755;BME280;41674;52.290;-1.474;2023-11-19T00:41:20;99886.87;;;9.38;100.00
55755;BME280;41674;52.290;-1.474;2023-11-19T00:43:49;99882.67;;;9.33;100.00
55755;BME280;41674;52.290;-1.474;2023-11-19T00:46:18;99873.52;;;9.06;100.00
55755;BME280;41674;52.290;-1.474;2023-11-19T00:48:48;99871.53;;;9.12;100.00
55755;BME280;41674;52.290;-1.474;2023-11-19T00:51:17;99879.31;;;9.17;100.00
55755;BME280;41674;52.290;-1.474;2023-11-19T00:53:47;99879.67;;;9.04;100.00
55755;BME280;41674;52.290;-1.474;2023-11-19T00:56:16;99885.26;;;8.94;100.00
55755;BME280;41674;52.290;-1.474;2023-11-19T00:58:46;99885.87;;;9.52;100.00
55755;BME280;41674;52.290;-1.474;2023-11-19T01:01:15;99884.72;;;9.39;100.00
55755;BME280;41674;52.290;-1.474;2023-11-19T01:03:44;99879.97;;;9.91;100.00
55755;BME280;41674;52.290;-1.474;2023-11-19T01:06:14;99878.25;;;8.77;100.00
55755;BME280;41674;52.290;-1.474;2023-11-19T01:08:43;99879.42;;;9.66;100.00
55755;BME280;41674;52.290;-1.474;2023-11-19T01:11:21;99875.20;;;10.57;98.48
55755;BME280;41674;52.290;-1.474;2023-11-19T01:13:42;99880.68;;;9.57;100.00
55755;BME280;41674;52.290;-1.474;2023-11-19T01:16:12;99874.28;;;9.94;100.00
55755;BME280;41674;52.290;-1.474;2023-11-19T01:18:42;99878.35;;;9.90;100.00
55755;BME280;41674;52.290;-1.474;2023-11-19T01:21:12;99884.52;;;10.35;98.31
55755;BME280;41674;52.290;-1.474;2023-11-19T01:23:40;99879.92;;;9.78;97.40
55755;BME280;41674;52.290;-1.474;2023-11-19T01:26:10;99880.67;;;10.77;93.20
55755;BME280;41674;52.290;-1.474;2023-11-19T01:28:40;99880.19;;;11.35;90.67
55755;BME280;41674;52.290;-1.474;2023-11-19T01:31:09;99887.62;;;10.09;100.00
55755;BME280;41674;52.290;-1.474;2023-11-19T01:33:38;99891.33;;;10.59;97.03
55755;BME280;41674;52.290;-1.474;2023-11-19T01:36:12;99887.13;;;11.08;96.33
55755;BME280;41674;52.290;-1.474;2023-11-19T01:38:37;99879.45;;;10.80;94.03
55755;BME280;41674;52.290;-1.474;2023-11-19T01:41:07;99879.30;;;10.71;97.86
55755;BME280;41674;52.290;-1.474;2023-11-19T01:43:37;99882.68;;;10.11;100.00
55755;BME280;41674;52.290;-1.474;2023-11-19T01:46:06;99883.73;;;9.82;100.00
55755;BME280;41674;52.290;-1.474;2023-11-19T01:48:37;99886.91;;;9.45;100.00
55755;BME280;41674;52.290;-1.474;2023-11-19T01:51:06;99887.35;;;9.38;100.00
55755;BME280;41674;52.290;-1.474;2023-11-19T01:53:35;99883.08;;;9.78;100.00
55755;BME280;41674;52.290;-1.474;2023-11-19T01:56:05;99892.42;;;9.35;100.00
55755;BME280;41674;52.290;-1.474;2023-11-19T01:58:33;99879.86;;;9.21;100.00
55755;BME280;41674;52.290;-1.474;2023-11-19T02:01:04;99879.04;;;9.29;100.00
55755;BME280;41674;52.290;-1.474;2023-11-19T02:03:33;99872.62;;;9.91;100.00
55755;BME280;41674;52.290;-1.474;2023-11-19T02:06:03;99877.12;;;9.69;100.00
55755;BME280;41674;52.290;-1.474;2023-11-19T02:08:32;99876.14;;;10.31;100.00
55755;BME280;41674;52.290;-1.474;2023-11-19T02:11:01;99873.84;;;9.46;100.00
55755;BME280;41674;52.290;-1.474;2023-11-19T02:13:31;99870.29;;;9.12;100.00
55755;BME280;41674;52.290;-1.474;2023-11-19T02:16:01;99869.95;;;8.97;100.00
55755;BME280;41674;52.290;-1.474;2023-11-19T02:18:30;99880.86;;;9.48;100.00
55755;BME280;41674;52.290;-1.474;2023-11-19T02:21:00;99875.65;;;9.02;100.00
55755;BME280;41674;52.290;-1.474;2023-11-19T02:23:30;99871.23;;;9.85;100.00
55755;BME280;41674;52.290;-1.474;2023-11-19T02:26:05;99870.31;;;9.79;100.00
55755;BME280;41674;52.290;-1.474;2023-11-19T02:28:28;99866.22;;;9.99;100.00
55755;BME280;41674;52.290;-1.474;2023-11-19T02:30:58;99853.75;;;9.22;100.00
55755;BME280;41674;52.290;-1.474;2023-11-19T02:33:27;99858.73;;;9.10;100.00
55755;BME280;41674;52.290;-1.474;2023-11-19T02:35:57;99850.21;;;9.60;100.00
55755;BME280;41674;52.290;-1.474;2023-11-19T02:38:26;99847.40;;;9.91;100.00
55755;BME280;41674;52.290;-1.474;2023-11-19T02:40:55;99841.29;;;9.76;100.00
55755;BME280;41674;52.290;-1.474;2023-11-19T02:43:25;99840.84;;;9.10;100.00
55755;BME280;41674;52.290;-1.474;2023-11-19T02:45:54;99848.27;;;9.54;100.00
55755;BME280;41674;52.290;-1.474;2023-11-19T02:48:24;99851.71;;;9.25;100.00
55755;BME280;41674;52.290;-1.474;2023-11-19T02:53:23;99849.22;;;10.11;100.00
55755;BME280;41674;52.290;-1.474;2023-11-19T02:55:53;99848.78;;;9.76;100.00
55755;BME280;41674;52.290;-1.474;2023-11-19T02:58:22;99854.14;;;10.37;99.92
55755;BME280;41674;52.290;-1.474;2023-11-19T03:03:22;99853.62;;;9.78;100.00
55755;BME280;41674;52.290;-1.474;2023-11-19T03:05:51;99842.44;;;10.48;100.00
55755;BME280;41674;52.290;-1.474;2023-11-19T03:08:21;99842.95;;;9.54;100.00
55755;BME280;41674;52.290;-1.474;2023-11-19T03:10:50;99833.89;;;9.92;100.00
55755;BME280;41674;52.290;-1.474;2023-11-19T03:13:19;99837.47;;;10.32;99.97
55755;BME280;41674;52.290;-1.474;2023-11-19T03:15:53;99823.39;;;10.63;97.51
55755;BME280;41674;52.290;-1.474;2023-11-19T03:18:18;99819.41;;;10.01;99.62
55755;BME280;41674;52.290;-1.474;2023-11-19T03:20:47;99828.59;;;9.57;100.00
55755;BME280;41674;52.290;-1.474;2023-11-19T03:23:17;99821.50;;;9.66;100.00
55755;BME280;41674;52.290;-1.474;2023-11-19T03:25:46;99817.61;;;9.71;100.00
55755;BME280;41674;52.290;-1.474;2023-11-19T03:28:16;99823.74;;;9.48;100.00
55755;BME280;41674;52.290;-1.474;2023-11-19T03:30:45;99814.61;;;10.01;100.00
55755;BME280;41674;52.290;-1.474;2023-11-19T03:33:15;99817.07;;;9.31;100.00
55755;BME280;41674;52.290;-1.474;2023-11-19T03:35:50;99809.85;;;9.67;100.00
55755;BME280;41674;52.290;-1.474;2023-11-19T03:38:14;99800.95;;;9.55;100.00
55755;BME280;41674;52.290;-1.474;2023-11-19T03:40:43;99795.81;;;10.25;100.00
55755;BME280;41674;52.290;-1.474;2023-11-19T03:43:13;99804.51;;;9.50;100.00
55755;BME280;41674;52.290;-1.474;2023-11-19T03:45:43;99804.78;;;9.55;100.00
55755;BME280;41674;52.290;-1.474;2023-11-19T03:48:12;99801.29;;;9.55;100.00
55755;BME280;41674;52.290;-1.474;2023-11-19T03:50:42;99797.49;;;9.92;100.00
55755;BME280;41674;52.290;-1.474;2023-11-19T03:53:12;99799.95;;;9.51;100.00
55755;BME280;41674;52.290;-1.474;2023-11-19T03:55:41;99802.61;;;8.80;100.00
55755;BME280;41674;52.290;-1.474;2023-11-19T03:58:10;99810.20;;;8.92;100.00
55755;BME280;41674;52.290;-1.474;2023-11-19T04:00:40;99805.44;;;9.06;100.00
55755;BME280;41674;52.290;-1.474;2023-11-19T04:03:09;99811.22;;;8.94;100.00
55755;BME280;41674;52.290;-1.474;2023-11-19T04:05:39;99805.93;;;8.96;100.00
55755;BME280;41674;52.290;-1.474;2023-11-19T04:08:09;99806.23;;;8.49;100.00
55755;BME280;41674;52.290;-1.474;2023-11-19T04:10:43;99800.91;;;8.68;100.00
55755;BME280;41674;52.290;-1.474;2023-11-19T04:13:08;99810.64;;;8.74;100.00
55755;BME280;41674;52.290;-1.474;2023-11-19T04:15:37;99814.41;;;8.71;100.00
55755;BME280;41674;52.290;-1.474;2023-11-19T04:18:06;99815.80;;;8.61;100.00
55755;BME280;41674;52.290;-1.474;2023-11-19T04:20:36;99813.86;;;8.55;100.00
55755;BME280;41674;52.290;-1.474;2023-11-19T04:23:06;99822.97;;;8.62;100.00
55755;BME280;41674;52.290;-1.474;2023-11-19T04:25:40;99822.60;;;8.56;100.00
55755;BME280;41674;52.290;-1.474;2023-11-19T04:28:04;99818.67;;;8.80;100.00
55755;BME280;41674;52.290;-1.474;2023-11-19T04:30:34;99818.11;;;8.60;100.00
55755;BME280;41674;52.290;-1.474;2023-11-19T04:33:04;99817.75;;;8.30;100.00
55755;BME280;41674;52.290;-1.474;2023-11-19T04:35:33;99827.23;;;8.57;100.00
55755;BME280;41674;52.290;-1.474;2023-11-19T04:38:03;99834.74;;;8.38;100.00
55755;BME280;41674;52.290;-1.474;2023-11-19T04:40:32;99825.34;;;8.48;100.00
55755;BME280;41674;52.290;-1.474;2023-11-19T04:43:02;99825.32;;;8.35;100.00
55755;BME280;41674;52.290;-1.474;2023-11-19T04:45:31;99831.70;;;8.78;100.00
55755;BME280;41674;52.290;-1.474;2023-11-19T04:48:02;99830.02;;;8.65;100.00
55755;BME280;41674;52.290;-1.474;2023-11-19T04:50:31;99832.57;;;8.85;100.00
55755;BME280;41674;52.290;-1.474;2023-11-19T04:53:00;99828.30;;;8.68;100.00
55755;BME280;41674;52.290;-1.474;2023-11-19T04:55:30;99829.12;;;8.69;100.00
55755;BME280;41674;52.290;-1.474;2023-11-19T04:57:59;99841.76;;;8.60;100.00
55755;BME280;41674;52.290;-1.474;2023-11-19T05:00:29;99842.01;;;8.92;100.00
55755;BME280;41674;52.290;-1.474;2023-11-19T05:02:58;99830.54;;;9.00;100.00
55755;BME280;41674;52.290;-1.474;2023-11-19T05:05:28;99841.67;;;9.06;100.00
55755;BME280;41674;52.290;-1.474;2023-11-19T05:07:57;99831.01;;;9.74;100.00
55755;BME280;41674;52.290;-1.474;2023-11-19T05:10:27;99832.75;;;9.54;100.00
55755;BME280;41674;52.290;-1.474;2023-11-19T05:12:56;99820.98;;;9.88;98.88
55755;BME280;41674;52.290;-1.474;2023-11-19T05:15:26;99824.88;;;8.92;100.00
55755;BME280;41674;52.290;-1.474;2023-11-19T05:17:56;99824.48;;;9.49;100.00
55755;BME280;41674;52.290;-1.474;2023-11-19T05:20:25;99817.55;;;8.40;100.00
55755;BME280;41674;52.290;-1.474;2023-11-19T05:22:55;99815.90;;;8.51;100.00
55755;BME280;41674;52.290;-1.474;2023-11-19T05:25:24;99819.33;;;9.37;100.00
55755;BME280;41674;52.290;-1.474;2023-11-19T05:30:23;99831.07;;;9.23;100.00
55755;BME280;41674;52.290;-1.474;2023-11-19T05:32:53;99832.19;;;9.06;100.00
55755;BME280;41674;52.290;-1.474;2023-11-19T05:35:23;99829.60;;;8.70;100.00
55755;BME280;41674;52.290;-1.474;2023-11-19T05:37:53;99825.48;;;8.68;100.00
55755;BME280;41674;52.290;-1.474;2023-11-19T05:40:21;99827.29;;;8.54;100.00
55755;BME280;41674;52.290;-1.474;2023-11-19T05:42:51;99838.57;;;8.50;100.00
55755;BME280;41674;52.290;-1.474;2023-11-19T05:45:20;99841.56;;;8.53;100.00
55755;BME280;41674;52.290;-1.474;2023-11-19T05:47:50;99838.46;;;8.90;100.00
55755;BME280;41674;52.290;-1.474;2023-11-19T05:50:19;99823.59;;;8.36;100.00
55755;BME280;41674;52.290;-1.474;2023-11-19T05:52:50;99831.18;;;8.03;100.00
55755;BME280;41674;52.290;-1.474;2023-11-19T05:55:18;99827.19;;;8.82;100.00
55755;BME280;41674;52.290;-1.474;2023-11-19T05:57:48;99822.66;;;9.39;100.00
55755;BME280;41674;52.290;-1.474;2023-11-19T06:00:17;99827.85;;;8.73;100.00
55755;BME280;41674;52.290;-1.474;2023-11-19T06:02:47;99827.76;;;9.43;100.00
55755;BME280;41674;52.290;-1.474;2023-11-19T06:05:17;99822.01;;;8.73;100.00
55755;BME280;41674;52.290;-1.474;2023-11-19T06:07:46;99817.96;;;9.45;100.00
55755;BME280;41674;52.290;-1.474;2023-11-19T06:10:15;99827.84;;;9.34;100.00
55755;BME280;41674;52.290;-1.474;2023-11-19T06:12:45;99824.34;;;9.17;100.00
55755;BME280;41674;52.290;-1.474;2023-11-19T06:15:14;99818.34;;;9.56;100.00
55755;BME280;41674;52.290;-1.474;2023-11-19T06:17:44;99816.83;;;8.95;100.00
55755;BME280;41674;52.290;-1.474;2023-11-19T06:20:13;99819.36;;;8.59;100.00
55755;BME280;41674;52.290;-1.474;2023-11-19T06:22:43;99826.16;;;8.82;100.00
55755;BME280;41674;52.290;-1.474;2023-11-19T06:25:13;99821.48;;;9.07;100.00
55755;BME280;41674;52.290;-1.474;2023-11-19T06:27:43;99825.15;;;8.65;100.00
55755;BME280;41674;52.290;-1.474;2023-11-19T06:30:12;99828.05;;;8.61;100.00
55755;BME280;41674;52.290;-1.474;2023-11-19T06:32:41;99827.07;;;8.81;100.00
55755;BME280;41674;52.290;-1.474;2023-11-19T06:35:11;99828.83;;;8.58;100.00
55755;BME280;41674;52.290;-1.474;2023-11-19T06:37:41;99834.28;;;8.59;100.00
55755;BME280;41674;52.290;-1.474;2023-11-19T06:40:10;99822.44;;;8.11;100.00
55755;BME280;41674;52.290;-1.474;2023-11-19T06:42:39;99819.58;;;8.54;100.00
55755;BME280;41674;52.290;-1.474;2023-11-19T06:45:15;99814.04;;;8.64;100.00
55755;BME280;41674;52.290;-1.474;2023-11-19T06:47:38;99808.13;;;8.80;100.00
55755;BME280;41674;52.290;-1.474;2023-11-19T06:50:09;99810.34;;;8.35;100.00
55755;BME280;41674;52.290;-1.474;2023-11-19T06:52:37;99806.89;;;7.91;100.00
55755;BME280;41674;52.290;-1.474;2023-11-19T06:55:08;99807.76;;;8.12;100.00
55755;BME280;41674;52.290;-1.474;2023-11-19T06:57:35;99809.57;;;8.16;100.00
55755;BME280;41674;52.290;-1.474;2023-11-19T07:00:07;99805.20;;;8.21;100.00
55755;BME280;41674;52.290;-1.474;2023-11-19T07:02:35;99812.96;;;7.84;100.00
55755;BME280;41674;52.290;-1.474;2023-11-19T07:05:04;99808.38;;;8.03;100.00
55755;BME280;41674;52.290;-1.474;2023-11-19T07:07:34;99806.93;;;8.22;100.00
55755;BME280;41674;52.290;-1.474;2023-11-19T07:10:04;99815.05;;;8.39;100.00
55755;BME280;41674;52.290;-1.474;2023-11-19T07:12:33;99818.00;;;8.21;100.00
55755;BME280;41674;52.290;-1.474;2023-11-19T07:15:03;99814.06;;;7.77;100.00
55755;BME280;41674;52.290;-1.474;2023-11-19T07:17:32;99818.24;;;7.98;100.00
55755;BME280;41674;52.290;-1.474;2023-11-19T07:20:02;99819.51;;;7.97;100.00
55755;BME280;41674;52.290;-1.474;2023-11-19T07:22:31;99814.54;;;8.21;100.00
55755;BME280;41674;52.290;-1.474;2023-11-19T07:25:02;99811.40;;;8.79;100.00
55755;BME280;41674;52.290;-1.474;2023-11-19T07:27:31;99817.49;;;8.47;100.00
55755;BME280;41674;52.290;-1.474;2023-11-19T07:30:00;99811.55;;;8.30;100.00
55755;BME280;41674;52.290;-1.474;2023-11-19T07:32:30;99813.08;;;8.23;100.00
55755;BME280;41674;52.290;-1.474;2023-11-19T07:34:59;99819.73;;;8.42;100.00
55755;BME280;41674;52.290;-1.474;2023-11-19T07:37:30;99818.48;;;8.00;100.00
55755;BME280;41674;52.290;-1.474;2023-11-19T07:40:09;99821.29;;;8.67;100.00
55755;BME280;41674;52.290;-1.474;2023-11-19T07:42:28;99830.52;;;9.23;100.00
55755;BME280;41674;52.290;-1.474;2023-11-19T07:44:58;99820.59;;;9.10;100.00
55755;BME280;41674;52.290;-1.474;2023-11-19T07:47:27;99824.97;;;8.63;100.00
55755;BME280;41674;52.290;-1.474;2023-11-19T07:49:56;99829.47;;;8.62;100.00
55755;BME280;41674;52.290;-1.474;2023-11-19T07:52:26;99829.49;;;8.98;100.00
55755;BME280;41674;52.290;-1.474;2023-11-19T07:57:25;99829.85;;;9.05;100.00
55755;BME280;41674;52.290;-1.474;2023-11-19T07:59:55;99824.02;;;8.49;100.00
55755;BME280;41674;52.290;-1.474;2023-11-19T08:02:24;99822.15;;;8.97;100.00
55755;BME280;41674;52.290;-1.474;2023-11-19T08:04:53;99821.47;;;8.63;100.00
55755;BME280;41674;52.290;-1.474;2023-11-19T08:07:23;99814.04;;;8.66;100.00
55755;BME280;41674;52.290;-1.474;2023-11-19T08:09:52;99815.87;;;9.00;100.00
55755;BME280;41674;52.290;-1.474;2023-11-19T08:12:22;99812.53;;;9.37;100.00
55755;BME280;41674;52.290;-1.474;2023-11-19T08:14:51;99809.35;;;9.12;100.00
55755;BME280;41674;52.290;-1.474;2023-11-19T08:17:21;99805.26;;;9.95;100.00
55755;BME280;41674;52.290;-1.474;2023-11-19T08:19:51;99807.15;;;9.74;100.00
55755;BME280;41674;52.290;-1.474;2023-11-19T08:22:20;99814.45;;;8.57;100.00
55755;BME280;41674;52.290;-1.474;2023-11-19T08:24:50;99807.22;;;9.72;100.00
55755;BME280;41674;52.290;-1.474;2023-11-19T08:27:19;99810.21;;;9.32;100.00
55755;BME280;41674;52.290;-1.474;2023-11-19T08:29:49;99812.38;;;9.41;100.00
55755;BME280;41674;52.290;-1.474;2023-11-19T08:32:18;99807.06;;;9.56;100.00
55755;BME280;41674;52.290;-1.474;2023-11-19T08:34:48;99811.10;;;9.13;100.00
55755;BME280;41674;52.290;-1.474;2023-11-19T08:37:18;99809.03;;;9.43;100.00
55755;BME280;41674;52.290;-1.474;2023-11-19T08:39:47;99812.08;;;9.03;100.00
55755;BME280;41674;52.290;-1.474;2023-11-19T08:42:17;99806.42;;;8.88;100.00
55755;BME280;41674;52.290;-1.474;2023-11-19T08:44:49;99803.24;;;9.62;100.00
55755;BME280;41674;52.290;-1.474;2023-11-19T08:47:15;99806.06;;;9.54;100.00
55755;BME280;41674;52.290;-1.474;2023-11-19T08:49:45;99807.53;;;9.35;100.00
55755;BME280;41674;52.290;-1.474;2023-11-19T08:52:14;99802.88;;;9.71;100.00
55755;BME280;41674;52.290;-1.474;2023-11-19T08:54:43;99812.30;;;8.96;100.00
55755;BME280;41674;52.290;-1.474;2023-11-19T08:57:14;99815.16;;;9.05;100.00
55755;BME280;41674;52.290;-1.474;2023-11-19T08:59:43;99807.53;;;9.19;100.00
55755;BME280;41674;52.290;-1.474;2023-11-19T09:02:17;99808.97;;;8.86;100.00
55755;BME280;41674;52.290;-1.474;2023-11-19T09:04:42;99801.82;;;8.70;100.00
55755;BME280;41674;52.290;-1.474;2023-11-19T09:07:11;99806.62;;;9.30;100.00
55755;BME280;41674;52.290;-1.474;2023-11-19T09:09:42;99795.87;;;9.35;100.00
55755;BME280;41674;52.290;-1.474;2023-11-19T09:12:11;99800.73;;;8.54;100.00
55755;BME280;41674;52.290;-1.474;2023-11-19T09:14:40;99801.11;;;9.16;100.00
55755;BME280;41674;52.290;-1.474;2023-11-19T09:17:10;99803.83;;;9.23;100.00
55755;BME280;41674;52.290;-1.474;2023-11-19T09:19:39;99805.60;;;8.45;100.00
55755;BME280;41674;52.290;-1.474;2023-11-19T09:22:08;99804.00;;;8.18;100.00
55755;BME280;41674;52.290;-1.474;2023-11-19T09:24:38;99808.85;;;8.58;100.00
55755;BME280;41674;52.290;-1.474;2023-11-19T09:27:07;99806.05;;;9.16;100.00
55755;BME280;41674;52.290;-1.474;2023-11-19T09:29:37;99792.00;;;9.93;100.00
55755;BME280;41674;52.290;-1.474;2023-11-19T09:32:07;99789.97;;;9.56;100.00
55755;BME280;41674;52.290;-1.474;2023-11-19T09:34:36;99790.45;;;10.37;100.00
55755;BME280;41674;52.290;-1.474;2023-11-19T09:37:06;99788.08;;;9.78;100.00
55755;BME280;41674;52.290;-1.474;2023-11-19T09:39:35;99788.26;;;10.30;100.00
55755;BME280;41674;52.290;-1.474;2023-11-19T09:42:15;99789.14;;;10.20;100.00
55755;BME280;41674;52.290;-1.474;2023-11-19T09:44:49;99781.41;;;10.56;100.00
55755;BME280;41674;52.290;-1.474;2023-11-19T09:47:04;99780.63;;;11.01;100.00
55755;BME280;41674;52.290;-1.474;2023-11-19T09:49:36;99781.15;;;10.59;100.00
55755;BME280;41674;52.290;-1.474;2023-11-19T09:52:04;99787.50;;;10.29;100.00
55755;BME280;41674;52.290;-1.474;2023-11-19T09:54:33;99796.56;;;10.40;100.00
55755;BME280;41674;52.290;-1.474;2023-11-19T09:57:03;99785.50;;;10.05;100.00
55755;BME280;41674;52.290;-1.474;2023-11-19T09:59:33;99786.50;;;9.61;100.00
55755;BME280;41674;52.290;-1.474;2023-11-19T10:02:03;99791.10;;;9.14;100.00
55755;BME280;41674;52.290;-1.474;2023-11-19T10:04:33;99790.17;;;9.41;100.00
55755;BME280;41674;52.290;-1.474;2023-11-19T10:09:30;99783.27;;;9.46;100.00
55755;BME280;41674;52.290;-1.474;2023-11-19T10:14:30;99793.98;;;9.49;100.00
55755;BME280;41674;52.290;-1.474;2023-11-19T10:19:28;99783.72;;;10.36;100.00
55755;BME280;41674;52.290;-1.474;2023-11-19T10:22:02;99772.07;;;11.19;100.00
55755;BME280;41674;52.290;-1.474;2023-11-19T10:24:32;99790.76;;;10.60;100.00
55755;BME280;41674;52.290;-1.474;2023-11-19T10:26:57;99795.68;;;10.97;100.00
55755;BME280;41674;52.290;-1.474;2023-11-19T10:29:27;99794.55;;;10.70;100.00
55755;BME280;41674;52.290;-1.474;2023-11-19T10:31:57;99788.19;;;10.39;100.00
55755;BME280;41674;52.290;-1.474;2023-11-19T10:34:26;99789.03;;;10.26;100.00
55755;BME280;41674;52.290;-1.474;2023-11-19T10:36:55;99786.39;;;10.18;100.00
55755;BME280;41674;52.290;-1.474;2023-11-19T10:41:54;99777.90;;;10.21;100.00
55755;BME280;41674;52.290;-1.474;2023-11-19T10:44:32;99776.85;;;10.02;100.00
55755;BME280;41674;52.290;-1.474;2023-11-19T10:46:53;99782.16;;;10.22;100.00
55755;BME280;41674;52.290;-1.474;2023-11-19T10:49:23;99782.01;;;9.62;100.00
55755;BME280;41674;52.290;-1.474;2023-11-19T10:51:53;99777.95;;;8.98;100.00
55755;BME280;41674;52.290;-1.474;2023-11-19T10:54:22;99776.63;;;9.51;100.00
55755;BME280;41674;52.290;-1.474;2023-11-19T10:56:55;99768.16;;;10.06;100.00
55755;BME280;41674;52.290;-1.474;2023-11-19T10:59:21;99770.98;;;10.27;100.00
55755;BME280;41674;52.290;-1.474;2023-11-19T11:04:23;99768.57;;;9.74;100.00
55755;BME280;41674;52.290;-1.474;2023-11-19T11:06:51;99770.23;;;10.15;100.00
55755;BME280;41674;52.290;-1.474;2023-11-19T11:09:19;99757.03;;;10.35;100.00
55755;BME280;41674;52.290;-1.474;2023-11-19T11:11:50;99758.85;;;10.42;100.00
55755;BME280;41674;52.290;-1.474;2023-11-19T11:14:23;99755.36;;;10.44;100.00
55755;BME280;41674;52.290;-1.474;2023-11-19T11:16:49;99751.36;;;9.64;100.00
55755;BME280;41674;52.290;-1.474;2023-11-19T11:19:17;99755.78;;;10.12;100.00
55755;BME280;41674;52.290;-1.474;2023-11-19T11:21:50;99751.64;;;10.77;100.00
55755;BME280;41674;52.290;-1.474;2023-11-19T11:24:32;99749.26;;;10.63;100.00
55755;BME280;41674;52.290;-1.474;2023-11-19T11:27:02;99750.82;;;10.29;100.00
55755;BME280;41674;52.290;-1.474;2023-11-19T11:29:24;99738.01;;;10.36;100.00
55755;BME280;41674;52.290;-1.474;2023-11-19T11:31:52;99732.30;;;9.92;100.00
55755;BME280;41674;52.290;-1.474;2023-11-19T11:34:34;99734.75;;;9.82;100.00
55755;BME280;41674;52.290;-1.474;2023-11-19T11:36:49;99737.49;;;10.40;100.00
55755;BME280;41674;52.290;-1.474;2023-11-19T11:39:14;99738.20;;;10.65;100.00
55755;BME280;41674;52.290;-1.474;2023-11-19T11:41:43;99727.20;;;10.21;100.00
55755;BME280;41674;52.290;-1.474;2023-11-19T11:44:13;99727.28;;;10.40;100.00
55755;BME280;41674;52.290;-1.474;2023-11-19T11:46:55;99733.55;;;9.84;100.00
55755;BME280;41674;52.290;-1.474;2023-11-19T11:49:25;99736.05;;;9.64;100.00
55755;BME280;41674;52.290;-1.474;2023-11-19T11:54:10;99726.04;;;10.44;100.00
55755;BME280;41674;52.290;-1.474;2023-11-19T11:59:18;99715.13;;;10.34;100.00
55755;BME280;41674;52.290;-1.474;2023-11-19T12:04:10;99714.11;;;10.46;100.00
55755;BME280;41674;52.290;-1.474;2023-11-19T12:06:38;99719.25;;;10.39;100.00
55755;BME280;41674;52.290;-1.474;2023-11-19T12:09:08;99710.33;;;10.48;100.00
55755;BME280;41674;52.290;-1.474;2023-11-19T12:11:37;99719.85;;;10.46;100.00
55755;BME280;41674;52.290;-1.474;2023-11-19T12:14:07;99709.99;;;9.61;100.00
55755;BME280;41674;52.290;-1.474;2023-11-19T12:16:37;99712.79;;;10.25;100.00
55755;BME280;41674;52.290;-1.474;2023-11-19T12:19:07;99716.94;;;10.33;100.00
55755;BME280;41674;52.290;-1.474;2023-11-19T12:21:36;99715.95;;;10.24;100.00
55755;BME280;41674;52.290;-1.474;2023-11-19T12:24:06;99713.85;;;9.94;100.00
55755;BME280;41674;52.290;-1.474;2023-11-19T12:26:36;99719.13;;;10.63;100.00
55755;BME280;41674;52.290;-1.474;2023-11-19T12:29:04;99707.14;;;10.22;100.00
55755;BME280;41674;52.290;-1.474;2023-11-19T12:31:34;99702.58;;;10.00;100.00
55755;BME280;41674;52.290;-1.474;2023-11-19T12:34:07;99693.05;;;9.92;100.00
55755;BME280;41674;52.290;-1.474;2023-11-19T12:36:33;99710.64;;;10.43;100.00
55755;BME280;41674;52.290;-1.474;2023-11-19T12:39:03;99716.98;;;10.25;100.00
55755;BME280;41674;52.290;-1.474;2023-11-19T12:41:31;99710.33;;;9.93;100.00
55755;BME280;41674;52.290;-1.474;2023-11-19T12:44:11;99710.78;;;10.11;100.00
55755;BME280;41674;52.290;-1.474;2023-11-19T12:46:31;99707.43;;;10.60;100.00
55755;BME280;41674;52.290;-1.474;2023-11-19T12:49:01;99723.75;;;10.18;100.00
55755;BME280;41674;52.290;-1.474;2023-11-19T12:51:31;99704.05;;;10.16;100.00
55755;BME280;41674;52.290;-1.474;2023-11-19T12:54:06;99709.64;;;10.06;100.00
55755;BME280;41674;52.290;-1.474;2023-11-19T12:56:30;99704.81;;;10.09;100.00
55755;BME280;41674;52.290;-1.474;2023-11-19T12:59:10;99703.06;;;10.85;100.00
55755;BME280;41674;52.290;-1.474;2023-11-19T13:01:28;99696.39;;;10.21;100.00
55755;BME280;41674;52.290;-1.474;2023-11-19T13:03:58;99697.19;;;10.68;100.00
55755;BME280;41674;52.290;-1.474;2023-11-19T13:06:28;99697.70;;;10.06;100.00
55755;BME280;41674;52.290;-1.474;2023-11-19T13:08:57;99695.71;;;10.35;100.00
55755;BME280;41674;52.290;-1.474;2023-11-19T13:11:33;99693.90;;;10.07;100.00
55755;BME280;41674;52.290;-1.474;2023-11-19T13:13:56;99696.46;;;10.29;100.00
55755;BME280;41674;52.290;-1.474;2023-11-19T13:16:26;99700.70;;;10.18;100.00
55755;BME280;41674;52.290;-1.474;2023-11-19T13:19:00;99699.82;;;10.08;100.00
55755;BME280;41674;52.290;-1.474;2023-11-19T13:21:24;99699.87;;;10.51;100.00
55755;BME280;41674;52.290;-1.474;2023-11-19T13:23:54;99696.96;;;10.10;100.00
55755;BME280;41674;52.290;-1.474;2023-11-19T13:26:23;99699.28;;;9.58;100.00
55755;BME280;41674;52.290;-1.474;2023-11-19T13:28:59;99704.85;;;9.90;100.00
55755;BME280;41674;52.290;-1.474;2023-11-19T13:31:22;99701.29;;;10.00;100.00